sensor_id;sensor_type;location;lat;lon;timestamp;P1;durP1;ratioP1;P2;durP2;ratioP2
58384;SDS011;44185;47.844;8.966;2023-07-13T00:02:24;10.13;;;4.70;;
58384;SDS011;44185;47.844;8.966;2023-07-13T00:04:50;10.48;;;4.45;;
58384;SDS011;44185;47.844;8.966;2023-07-13T00:07:15;9.20;;;4.25;;
58384;SDS011;44185;47.844;8.966;2023-07-13T00:09:43;8.63;;;3.90;;
58384;SDS011;44185;47.844;8.966;2023-07-13T00:12:23;8.82;;;4.00;;
58384;SDS011;44185;47.844;8.966;2023-07-13T00:14:50;11.80;;;4.43;;
58384;SDS011;44185;47.844;8.966;2023-07-13T00:17:15;9.48;;;4.18;;
58384;SDS011;44185;47.844;8.966;2023-07-13T00:19:41;10.60;;;4.43;;
58384;SDS011;44185;47.844;8.966;2023-07-13T00:22:06;9.27;;;4.35;;
58384;SDS011;44185;47.844;8.966;2023-07-13T00:24:32;12.40;;;4.75;;
58384;SDS011;44185;47.844;8.966;2023-07-13T00:26:57;12.37;;;4.67;;
58384;SDS011;44185;47.844;8.966;2023-07-13T00:29:25;9.25;;;4.20;;
58384;SDS011;44185;47.844;8.966;2023-07-13T00:31:51;10.88;;;5.07;;
58384;SDS011;44185;47.844;8.966;2023-07-13T00:34:16;12.25;;;4.50;;
58384;SDS011;44185;47.844;8.966;2023-07-13T00:36:42;9.30;;;4.57;;
58384;SDS011;44185;47.844;8.966;2023-07-13T00:39:10;11.02;;;4.22;;
58384;SDS011;44185;47.844;8.966;2023-07-13T00:41:38;9.63;;;3.92;;
58384;SDS011;44185;47.844;8.966;2023-07-13T00:44:04;9.00;;;3.92;;
58384;SDS011;44185;47.844;8.966;2023-07-13T00:46:32;10.10;;;4.37;;
58384;SDS011;44185;47.844;8.966;2023-07-13T00:48:59;8.70;;;4.47;;
58384;SDS011;44185;47.844;8.966;2023-07-13T00:51:31;8.40;;;4.10;;
58384;SDS011;44185;47.844;8.966;2023-07-13T00:54:00;9.77;;;4.65;;
58384;SDS011;44185;47.844;8.966;2023-07-13T00:56:30;9.68;;;4.15;;
58384;SDS011;44185;47.844;8.966;2023-07-13T00:58:57;8.30;;;3.95;;
58384;SDS011;44185;47.844;8.966;2023-07-13T01:01:25;9.82;;;4.47;;
58384;SDS011;44185;47.844;8.966;2023-07-13T01:03:52;7.25;;;4.20;;
58384;SDS011;44185;47.844;8.966;2023-07-13T01:06:17;12.07;;;4.32;;
58384;SDS011;44185;47.844;8.966;2023-07-13T01:08:42;10.93;;;4.05;;
58384;SDS011;44185;47.844;8.966;2023-07-13T01:11:08;12.30;;;4.50;;
58384;SDS011;44185;47.844;8.966;2023-07-13T01:13:33;7.77;;;4.20;;
58384;SDS011;44185;47.844;8.966;2023-07-13T01:16:01;9.38;;;4.57;;
58384;SDS011;44185;47.844;8.966;2023-07-13T01:18:30;9.70;;;4.55;;
58384;SDS011;44185;47.844;8.966;2023-07-13T01:20:58;9.20;;;4.40;;
58384;SDS011;44185;47.844;8.966;2023-07-13T01:23:25;8.23;;;4.10;;
58384;SDS011;44185;47.844;8.966;2023-07-13T01:25:52;12.35;;;4.07;;
58384;SDS011;44185;47.844;8.966;2023-07-13T01:28:18;12.05;;;4.38;;
58384;SDS011;44185;47.844;8.966;2023-07-13T01:30:45;14.48;;;4.60;;
58384;SDS011;44185;47.844;8.966;2023-07-13T01:33:11;10.43;;;4.85;;
58384;SDS011;44185;47.844;8.966;2023-07-13T01:35:38;13.27;;;4.80;;
58384;SDS011;44185;47.844;8.966;2023-07-13T01:38:05;12.25;;;5.25;;
58384;SDS011;44185;47.844;8.966;2023-07-13T01:40:31;15.15;;;4.70;;
58384;SDS011;44185;47.844;8.966;2023-07-13T01:42:57;15.32;;;4.78;;
58384;SDS011;44185;47.844;8.966;2023-07-13T01:45:23;8.98;;;4.68;;
58384;SDS011;44185;47.844;8.966;2023-07-13T01:47:48;12.63;;;5.38;;
58384;SDS011;44185;47.844;8.966;2023-07-13T01:50:16;13.23;;;4.85;;
58384;SDS011;44185;47.844;8.966;2023-07-13T01:52:44;14.52;;;5.00;;
58384;SDS011;44185;47.844;8.966;2023-07-13T01:55:11;11.65;;;4.80;;
58384;SDS011;44185;47.844;8.966;2023-07-13T01:57:39;12.70;;;4.65;;
58384;SDS011;44185;47.844;8.966;2023-07-13T02:00:08;13.85;;;4.40;;
58384;SDS011;44185;47.844;8.966;2023-07-13T02:02:35;9.80;;;4.70;;
58384;SDS011;44185;47.844;8.966;2023-07-13T02:05:00;9.25;;;4.13;;
58384;SDS011;44185;47.844;8.966;2023-07-13T02:07:26;9.43;;;4.60;;
58384;SDS011;44185;47.844;8.966;2023-07-13T02:09:51;9.23;;;4.00;;
58384;SDS011;44185;47.844;8.966;2023-07-13T02:12:18;10.25;;;4.15;;
58384;SDS011;44185;47.844;8.966;2023-07-13T02:14:44;9.70;;;4.10;;
58384;SDS011;44185;47.844;8.966;2023-07-13T02:17:09;11.18;;;4.45;;
58384;SDS011;44185;47.844;8.966;2023-07-13T02:19:35;9.65;;;4.47;;
58384;SDS011;44185;47.844;8.966;2023-07-13T02:22:01;9.00;;;4.20;;
58384;SDS011;44185;47.844;8.966;2023-07-13T02:24:26;12.13;;;5.10;;
58384;SDS011;44185;47.844;8.966;2023-07-13T02:26:52;10.77;;;4.65;;
58384;SDS011;44185;47.844;8.966;2023-07-13T02:29:21;8.77;;;4.38;;
58384;SDS011;44185;47.844;8.966;2023-07-13T02:31:46;13.70;;;5.33;;
58384;SDS011;44185;47.844;8.966;2023-07-13T02:34:12;12.00;;;4.60;;
58384;SDS011;44185;47.844;8.966;2023-07-13T02:36:37;10.50;;;4.63;;
58384;SDS011;44185;47.844;8.966;2023-07-13T02:39:04;12.68;;;4.93;;
58384;SDS011;44185;47.844;8.966;2023-07-13T02:41:30;10.65;;;4.57;;
58384;SDS011;44185;47.844;8.966;2023-07-13T02:43:57;9.68;;;4.72;;
58384;SDS011;44185;47.844;8.966;2023-07-13T02:46:24;9.38;;;4.50;;
58384;SDS011;44185;47.844;8.966;2023-07-13T02:48:49;8.35;;;4.45;;
58384;SDS011;44185;47.844;8.966;2023-07-13T02:51:15;8.88;;;4.60;;
58384;SDS011;44185;47.844;8.966;2023-07-13T02:53:40;10.30;;;4.00;;
58384;SDS011;44185;47.844;8.966;2023-07-13T02:56:05;11.70;;;4.43;;
58384;SDS011;44185;47.844;8.966;2023-07-13T02:58:31;10.73;;;4.25;;
58384;SDS011;44185;47.844;8.966;2023-07-13T03:00:56;13.95;;;4.63;;
58384;SDS011;44185;47.844;8.966;2023-07-13T03:03:24;8.95;;;3.97;;
58384;SDS011;44185;47.844;8.966;2023-07-13T03:05:57;17.02;;;4.32;;
58384;SDS011;44185;47.844;8.966;2023-07-13T03:08:24;12.38;;;4.40;;
58384;SDS011;44185;47.844;8.966;2023-07-13T03:10:57;11.77;;;4.30;;
58384;SDS011;44185;47.844;8.966;2023-07-13T03:13:24;8.65;;;4.43;;
58384;SDS011;44185;47.844;8.966;2023-07-13T03:15:49;11.15;;;4.40;;
58384;SDS011;44185;47.844;8.966;2023-07-13T03:18:15;8.70;;;4.20;;
58384;SDS011;44185;47.844;8.966;2023-07-13T03:20:42;9.45;;;4.15;;
58384;SDS011;44185;47.844;8.966;2023-07-13T03:23:07;9.07;;;4.40;;
58384;SDS011;44185;47.844;8.966;2023-07-13T03:25:33;9.73;;;4.70;;
58384;SDS011;44185;47.844;8.966;2023-07-13T03:27:58;9.13;;;4.20;;
58384;SDS011;44185;47.844;8.966;2023-07-13T03:30:24;12.45;;;4.72;;
58384;SDS011;44185;47.844;8.966;2023-07-13T03:32:49;10.07;;;4.45;;
58384;SDS011;44185;47.844;8.966;2023-07-13T03:35:15;8.48;;;4.47;;
58384;SDS011;44185;47.844;8.966;2023-07-13T03:37:42;12.80;;;4.50;;
58384;SDS011;44185;47.844;8.966;2023-07-13T03:40:08;7.88;;;4.28;;
58384;SDS011;44185;47.844;8.966;2023-07-13T03:42:33;8.35;;;4.72;;
58384;SDS011;44185;47.844;8.966;2023-07-13T03:44:59;8.90;;;4.00;;
58384;SDS011;44185;47.844;8.966;2023-07-13T03:47:24;9.17;;;3.57;;
58384;SDS011;44185;47.844;8.966;2023-07-13T03:49:50;10.73;;;3.92;;
58384;SDS011;44185;47.844;8.966;2023-07-13T03:52:15;8.80;;;4.00;;
58384;SDS011;44185;47.844;8.966;2023-07-13T03:54:42;10.43;;;3.95;;
58384;SDS011;44185;47.844;8.966;2023-07-13T03:57:08;16.00;;;4.50;;
58384;SDS011;44185;47.844;8.966;2023-07-13T03:59:33;9.18;;;4.35;;
58384;SDS011;44185;47.844;8.966;2023-07-13T04:01:59;9.52;;;4.35;;
58384;SDS011;44185;47.844;8.966;2023-07-13T04:04:25;7.72;;;3.78;;
58384;SDS011;44185;47.844;8.966;2023-07-13T04:06:51;8.00;;;3.92;;
58384;SDS011;44185;47.844;8.966;2023-07-13T04:09:16;6.32;;;3.17;;
58384;SDS011;44185;47.844;8.966;2023-07-13T04:11:43;9.68;;;3.53;;
58384;SDS011;44185;47.844;8.966;2023-07-13T04:14:08;10.32;;;4.07;;
58384;SDS011;44185;47.844;8.966;2023-07-13T04:16:34;9.07;;;3.90;;
58384;SDS011;44185;47.844;8.966;2023-07-13T04:18:59;8.18;;;4.15;;
58384;SDS011;44185;47.844;8.966;2023-07-13T04:21:25;6.97;;;3.80;;
58384;SDS011;44185;47.844;8.966;2023-07-13T04:23:51;6.55;;;3.50;;
58384;SDS011;44185;47.844;8.966;2023-07-13T04:26:16;9.77;;;4.15;;
58384;SDS011;44185;47.844;8.966;2023-07-13T04:28:43;7.28;;;3.85;;
58384;SDS011;44185;47.844;8.966;2023-07-13T04:31:08;6.85;;;4.20;;
58384;SDS011;44185;47.844;8.966;2023-07-13T04:33:34;13.10;;;5.47;;
58384;SDS011;44185;47.844;8.966;2023-07-13T04:35:59;11.35;;;4.63;;
58384;SDS011;44185;47.844;8.966;2023-07-13T04:38:25;10.00;;;4.65;;
58384;SDS011;44185;47.844;8.966;2023-07-13T04:40:54;10.13;;;4.75;;
58384;SDS011;44185;47.844;8.966;2023-07-13T04:43:20;7.25;;;4.00;;
58384;SDS011;44185;47.844;8.966;2023-07-13T04:45:47;7.65;;;3.78;;
58384;SDS011;44185;47.844;8.966;2023-07-13T04:48:12;7.35;;;3.60;;
58384;SDS011;44185;47.844;8.966;2023-07-13T04:50:38;8.02;;;3.53;;
58384;SDS011;44185;47.844;8.966;2023-07-13T04:53:04;9.70;;;3.72;;
58384;SDS011;44185;47.844;8.966;2023-07-13T04:55:29;8.07;;;3.83;;
58384;SDS011;44185;47.844;8.966;2023-07-13T04:57:55;5.55;;;3.58;;
58384;SDS011;44185;47.844;8.966;2023-07-13T05:00:21;8.40;;;3.70;;
58384;SDS011;44185;47.844;8.966;2023-07-13T05:02:48;6.28;;;3.95;;
58384;SDS011;44185;47.844;8.966;2023-07-13T05:05:14;9.60;;;3.72;;
58384;SDS011;44185;47.844;8.966;2023-07-13T05:07:39;9.52;;;4.00;;
58384;SDS011;44185;47.844;8.966;2023-07-13T05:10:05;11.48;;;3.83;;
58384;SDS011;44185;47.844;8.966;2023-07-13T05:12:31;10.02;;;3.80;;
58384;SDS011;44185;47.844;8.966;2023-07-13T05:14:57;8.90;;;3.78;;
58384;SDS011;44185;47.844;8.966;2023-07-13T05:17:22;7.25;;;4.03;;
58384;SDS011;44185;47.844;8.966;2023-07-13T05:19:49;6.63;;;4.18;;
58384;SDS011;44185;47.844;8.966;2023-07-13T05:22:14;10.35;;;4.85;;
58384;SDS011;44185;47.844;8.966;2023-07-13T05:24:40;7.88;;;4.28;;
58384;SDS011;44185;47.844;8.966;2023-07-13T05:27:06;10.50;;;4.10;;
58384;SDS011;44185;47.844;8.966;2023-07-13T05:29:31;7.30;;;3.78;;
58384;SDS011;44185;47.844;8.966;2023-07-13T05:31:57;9.60;;;4.20;;
58384;SDS011;44185;47.844;8.966;2023-07-13T05:34:22;8.07;;;3.70;;
58384;SDS011;44185;47.844;8.966;2023-07-13T05:36:49;7.53;;;3.92;;
58384;SDS011;44185;47.844;8.966;2023-07-13T05:39:15;9.57;;;4.20;;
58384;SDS011;44185;47.844;8.966;2023-07-13T05:41:40;10.30;;;4.25;;
58384;SDS011;44185;47.844;8.966;2023-07-13T05:44:05;8.27;;;4.25;;
58384;SDS011;44185;47.844;8.966;2023-07-13T05:46:31;7.68;;;4.68;;
58384;SDS011;44185;47.844;8.966;2023-07-13T05:48:56;8.43;;;4.33;;
58384;SDS011;44185;47.844;8.966;2023-07-13T05:51:22;8.30;;;4.47;;
58384;SDS011;44185;47.844;8.966;2023-07-13T05:53:49;8.88;;;4.20;;
58384;SDS011;44185;47.844;8.966;2023-07-13T05:56:15;8.82;;;4.60;;
58384;SDS011;44185;47.844;8.966;2023-07-13T05:58:40;9.73;;;4.93;;
58384;SDS011;44185;47.844;8.966;2023-07-13T06:01:06;9.40;;;5.07;;
58384;SDS011;44185;47.844;8.966;2023-07-13T06:03:34;11.23;;;5.18;;
58384;SDS011;44185;47.844;8.966;2023-07-13T06:06:00;11.32;;;5.10;;
58384;SDS011;44185;47.844;8.966;2023-07-13T06:08:25;6.95;;;4.00;;
58384;SDS011;44185;47.844;8.966;2023-07-13T06:10:53;7.30;;;3.60;;
58384;SDS011;44185;47.844;8.966;2023-07-13T06:13:18;7.28;;;4.43;;
58384;SDS011;44185;47.844;8.966;2023-07-13T06:15:47;7.07;;;4.35;;
58384;SDS011;44185;47.844;8.966;2023-07-13T06:18:13;9.57;;;4.00;;
58384;SDS011;44185;47.844;8.966;2023-07-13T06:20:38;9.80;;;4.43;;
58384;SDS011;44185;47.844;8.966;2023-07-13T06:23:04;5.95;;;3.20;;
58384;SDS011;44185;47.844;8.966;2023-07-13T06:25:29;6.75;;;3.33;;
58384;SDS011;44185;47.844;8.966;2023-07-13T06:27:56;5.13;;;2.83;;
58384;SDS011;44185;47.844;8.966;2023-07-13T06:30:21;5.60;;;3.05;;
58384;SDS011;44185;47.844;8.966;2023-07-13T06:32:47;4.63;;;3.30;;
58384;SDS011;44185;47.844;8.966;2023-07-13T06:35:12;5.35;;;3.53;;
58384;SDS011;44185;47.844;8.966;2023-07-13T06:37:38;8.90;;;3.45;;
58384;SDS011;44185;47.844;8.966;2023-07-13T06:40:03;6.80;;;3.03;;
58384;SDS011;44185;47.844;8.966;2023-07-13T06:42:30;7.30;;;3.30;;
58384;SDS011;44185;47.844;8.966;2023-07-13T06:44:56;6.10;;;3.38;;
58384;SDS011;44185;47.844;8.966;2023-07-13T06:47:22;4.88;;;3.00;;
58384;SDS011;44185;47.844;8.966;2023-07-13T06:49:48;6.80;;;2.97;;
58384;SDS011;44185;47.844;8.966;2023-07-13T06:52:13;6.63;;;3.20;;
58384;SDS011;44185;47.844;8.966;2023-07-13T06:54:39;5.15;;;3.40;;
58384;SDS011;44185;47.844;8.966;2023-07-13T06:57:04;6.10;;;3.33;;
58384;SDS011;44185;47.844;8.966;2023-07-13T06:59:30;6.38;;;3.47;;
58384;SDS011;44185;47.844;8.966;2023-07-13T07:01:57;5.68;;;3.40;;
58384;SDS011;44185;47.844;8.966;2023-07-13T07:04:22;7.85;;;3.70;;
58384;SDS011;44185;47.844;8.966;2023-07-13T07:06:48;9.15;;;3.38;;
58384;SDS011;44185;47.844;8.966;2023-07-13T07:09:13;8.30;;;3.75;;
58384;SDS011;44185;47.844;8.966;2023-07-13T07:11:39;5.18;;;3.30;;
58384;SDS011;44185;47.844;8.966;2023-07-13T07:14:04;6.72;;;3.10;;
58384;SDS011;44185;47.844;8.966;2023-07-13T07:16:30;7.60;;;2.92;;
58384;SDS011;44185;47.844;8.966;2023-07-13T07:18:56;3.85;;;3.00;;
58384;SDS011;44185;47.844;8.966;2023-07-13T07:21:22;5.60;;;2.70;;
58384;SDS011;44185;47.844;8.966;2023-07-13T07:23:48;5.95;;;3.08;;
58384;SDS011;44185;47.844;8.966;2023-07-13T07:26:14;5.57;;;3.05;;
58384;SDS011;44185;47.844;8.966;2023-07-13T07:28:39;5.87;;;2.80;;
58384;SDS011;44185;47.844;8.966;2023-07-13T07:31:05;5.00;;;2.75;;
58384;SDS011;44185;47.844;8.966;2023-07-13T07:33:31;5.38;;;2.97;;
58384;SDS011;44185;47.844;8.966;2023-07-13T07:35:58;6.53;;;2.90;;
58384;SDS011;44185;47.844;8.966;2023-07-13T07:38:24;5.22;;;3.00;;
58384;SDS011;44185;47.844;8.966;2023-07-13T07:40:49;6.28;;;2.88;;
58384;SDS011;44185;47.844;8.966;2023-07-13T07:43:15;5.38;;;2.70;;
58384;SDS011;44185;47.844;8.966;2023-07-13T07:45:40;5.90;;;2.88;;
58384;SDS011;44185;47.844;8.966;2023-07-13T07:48:06;7.25;;;3.20;;
58384;SDS011;44185;47.844;8.966;2023-07-13T07:50:32;5.60;;;2.83;;
58384;SDS011;44185;47.844;8.966;2023-07-13T07:52:59;5.22;;;2.83;;
58384;SDS011;44185;47.844;8.966;2023-07-13T07:55:24;8.68;;;3.00;;
58384;SDS011;44185;47.844;8.966;2023-07-13T07:57:50;6.72;;;3.20;;
58384;SDS011;44185;47.844;8.966;2023-07-13T08:00:16;9.35;;;3.35;;
58384;SDS011;44185;47.844;8.966;2023-07-13T08:02:42;3.55;;;2.90;;
58384;SDS011;44185;47.844;8.966;2023-07-13T08:05:08;6.35;;;3.00;;
58384;SDS011;44185;47.844;8.966;2023-07-13T08:07:34;3.05;;;2.30;;
58384;SDS011;44185;47.844;8.966;2023-07-13T08:10:01;6.30;;;2.50;;
58384;SDS011;44185;47.844;8.966;2023-07-13T08:12:26;4.05;;;2.38;;
58384;SDS011;44185;47.844;8.966;2023-07-13T08:14:52;5.60;;;2.28;;
58384;SDS011;44185;47.844;8.966;2023-07-13T08:17:18;3.97;;;2.70;;
58384;SDS011;44185;47.844;8.966;2023-07-13T08:19:43;7.22;;;2.13;;
58384;SDS011;44185;47.844;8.966;2023-07-13T08:22:09;5.25;;;2.50;;
58384;SDS011;44185;47.844;8.966;2023-07-13T08:24:34;5.22;;;1.90;;
58384;SDS011;44185;47.844;8.966;2023-07-13T08:27:01;3.75;;;2.28;;
58384;SDS011;44185;47.844;8.966;2023-07-13T08:29:27;2.42;;;2.08;;
58384;SDS011;44185;47.844;8.966;2023-07-13T08:31:52;5.20;;;2.10;;
58384;SDS011;44185;47.844;8.966;2023-07-13T08:34:18;5.72;;;2.97;;
58384;SDS011;44185;47.844;8.966;2023-07-13T08:36:43;4.40;;;2.92;;
58384;SDS011;44185;47.844;8.966;2023-07-13T08:39:09;6.30;;;3.33;;
58384;SDS011;44185;47.844;8.966;2023-07-13T08:41:34;9.27;;;3.47;;
58384;SDS011;44185;47.844;8.966;2023-07-13T08:44:02;6.78;;;3.22;;
58384;SDS011;44185;47.844;8.966;2023-07-13T08:49:01;3.47;;;2.60;;
58384;SDS011;44185;47.844;8.966;2023-07-13T08:51:33;4.95;;;2.53;;
58384;SDS011;44185;47.844;8.966;2023-07-13T08:54:05;4.38;;;2.50;;
58384;SDS011;44185;47.844;8.966;2023-07-13T08:56:39;5.22;;;2.75;;
58384;SDS011;44185;47.844;8.966;2023-07-13T08:59:09;6.70;;;2.80;;
58384;SDS011;44185;47.844;8.966;2023-07-13T09:01:44;4.88;;;2.63;;
58384;SDS011;44185;47.844;8.966;2023-07-13T09:04:18;4.43;;;2.83;;
58384;SDS011;44185;47.844;8.966;2023-07-13T09:06:49;7.55;;;2.80;;
58384;SDS011;44185;47.844;8.966;2023-07-13T09:09:31;3.30;;;2.70;;
58384;SDS011;44185;47.844;8.966;2023-07-13T09:12:14;3.67;;;2.55;;
58384;SDS011;44185;47.844;8.966;2023-07-13T09:14:46;3.80;;;2.33;;
58384;SDS011;44185;47.844;8.966;2023-07-13T09:17:15;3.88;;;2.70;;
58384;SDS011;44185;47.844;8.966;2023-07-13T09:19:43;3.83;;;2.10;;
58384;SDS011;44185;47.844;8.966;2023-07-13T09:24:41;2.53;;;1.80;;
58384;SDS011;44185;47.844;8.966;2023-07-13T09:27:17;4.78;;;2.20;;
58384;SDS011;44185;47.844;8.966;2023-07-13T09:29:47;3.45;;;1.90;;
58384;SDS011;44185;47.844;8.966;2023-07-13T09:32:16;4.13;;;1.90;;
58384;SDS011;44185;47.844;8.966;2023-07-13T09:34:49;5.83;;;2.20;;
58384;SDS011;44185;47.844;8.966;2023-07-13T09:37:15;6.75;;;2.20;;
58384;SDS011;44185;47.844;8.966;2023-07-13T09:39:40;5.00;;;2.20;;
58384;SDS011;44185;47.844;8.966;2023-07-13T09:42:12;4.32;;;2.55;;
58384;SDS011;44185;47.844;8.966;2023-07-13T09:44:44;10.65;;;2.88;;
58384;SDS011;44185;47.844;8.966;2023-07-13T09:47:19;5.13;;;2.00;;
58384;SDS011;44185;47.844;8.966;2023-07-13T09:49:47;5.65;;;2.20;;
58384;SDS011;44185;47.844;8.966;2023-07-13T09:52:14;3.30;;;2.30;;
58384;SDS011;44185;47.844;8.966;2023-07-13T09:54:43;2.92;;;2.20;;
58384;SDS011;44185;47.844;8.966;2023-07-13T09:57:12;2.85;;;2.00;;
58384;SDS011;44185;47.844;8.966;2023-07-13T09:59:39;3.90;;;2.20;;
58384;SDS011;44185;47.844;8.966;2023-07-13T10:04:55;3.77;;;2.10;;
58384;SDS011;44185;47.844;8.966;2023-07-13T10:07:22;4.10;;;2.20;;
58384;SDS011;44185;47.844;8.966;2023-07-13T10:09:49;3.78;;;2.40;;
58384;SDS011;44185;47.844;8.966;2023-07-13T10:12:17;5.03;;;2.30;;
58384;SDS011;44185;47.844;8.966;2023-07-13T10:14:43;4.38;;;2.10;;
58384;SDS011;44185;47.844;8.966;2023-07-13T10:17:10;4.20;;;2.55;;
58384;SDS011;44185;47.844;8.966;2023-07-13T10:19:40;3.80;;;2.27;;
58384;SDS011;44185;47.844;8.966;2023-07-13T10:22:12;5.07;;;2.30;;
58384;SDS011;44185;47.844;8.966;2023-07-13T10:24:42;5.70;;;2.67;;
58384;SDS011;44185;47.844;8.966;2023-07-13T10:27:10;5.30;;;2.20;;
58384;SDS011;44185;47.844;8.966;2023-07-13T10:29:42;3.63;;;1.70;;
58384;SDS011;44185;47.844;8.966;2023-07-13T10:32:11;3.45;;;2.10;;
58384;SDS011;44185;47.844;8.966;2023-07-13T10:34:37;3.23;;;2.10;;
58384;SDS011;44185;47.844;8.966;2023-07-13T10:37:06;6.13;;;2.17;;
58384;SDS011;44185;47.844;8.966;2023-07-13T10:39:40;4.10;;;1.95;;
58384;SDS011;44185;47.844;8.966;2023-07-13T10:42:06;3.63;;;2.10;;
58384;SDS011;44185;47.844;8.966;2023-07-13T10:44:37;3.08;;;2.08;;
58384;SDS011;44185;47.844;8.966;2023-07-13T10:47:04;5.55;;;2.13;;
58384;SDS011;44185;47.844;8.966;2023-07-13T10:49:39;4.65;;;2.20;;
58384;SDS011;44185;47.844;8.966;2023-07-13T10:52:20;4.80;;;2.00;;
58384;SDS011;44185;47.844;8.966;2023-07-13T10:58:00;4.75;;;2.00;;
58384;SDS011;44185;47.844;8.966;2023-07-13T11:00:26;3.38;;;1.90;;
58384;SDS011;44185;47.844;8.966;2023-07-13T11:02:55;4.35;;;2.00;;
58384;SDS011;44185;47.844;8.966;2023-07-13T11:05:27;3.92;;;2.20;;
58384;SDS011;44185;47.844;8.966;2023-07-13T11:07:55;3.75;;;2.00;;
58384;SDS011;44185;47.844;8.966;2023-07-13T11:10:47;3.53;;;2.08;;
58384;SDS011;44185;47.844;8.966;2023-07-13T11:16:12;2.37;;;1.60;;
58384;SDS011;44185;47.844;8.966;2023-07-13T11:18:38;2.15;;;1.95;;
58384;SDS011;44185;47.844;8.966;2023-07-13T11:21:15;1.90;;;1.80;;
58384;SDS011;44185;47.844;8.966;2023-07-13T11:23:42;3.10;;;2.00;;
58384;SDS011;44185;47.844;8.966;2023-07-13T11:29:07;2.35;;;2.25;;
58384;SDS011;44185;47.844;8.966;2023-07-13T11:31:33;4.37;;;2.30;;
58384;SDS011;44185;47.844;8.966;2023-07-13T11:34:00;2.38;;;2.17;;
58384;SDS011;44185;47.844;8.966;2023-07-13T11:36:31;4.32;;;2.10;;
58384;SDS011;44185;47.844;8.966;2023-07-13T11:39:02;4.10;;;2.20;;
58384;SDS011;44185;47.844;8.966;2023-07-13T11:41:36;5.68;;;2.15;;
58384;SDS011;44185;47.844;8.966;2023-07-13T11:44:12;3.85;;;2.10;;
58384;SDS011;44185;47.844;8.966;2023-07-13T11:46:43;5.20;;;2.15;;
58384;SDS011;44185;47.844;8.966;2023-07-13T11:49:11;3.30;;;2.10;;
58384;SDS011;44185;47.844;8.966;2023-07-13T11:51:42;3.95;;;2.20;;
58384;SDS011;44185;47.844;8.966;2023-07-13T11:54:16;2.53;;;1.95;;
58384;SDS011;44185;47.844;8.966;2023-07-13T11:56:51;2.72;;;2.03;;
58384;SDS011;44185;47.844;8.966;2023-07-13T11:59:17;5.93;;;2.10;;
58384;SDS011;44185;47.844;8.966;2023-07-13T12:01:44;2.97;;;2.10;;
58384;SDS011;44185;47.844;8.966;2023-07-13T12:04:19;3.60;;;2.05;;
58384;SDS011;44185;47.844;8.966;2023-07-13T12:06:49;3.88;;;2.08;;
58384;SDS011;44185;47.844;8.966;2023-07-13T12:09:19;3.83;;;2.05;;
58384;SDS011;44185;47.844;8.966;2023-07-13T12:11:45;3.80;;;2.40;;
58384;SDS011;44185;47.844;8.966;2023-07-13T12:14:13;3.70;;;2.10;;
58384;SDS011;44185;47.844;8.966;2023-07-13T12:16:39;3.03;;;2.00;;
58384;SDS011;44185;47.844;8.966;2023-07-13T12:19:09;2.70;;;2.10;;
58384;SDS011;44185;47.844;8.966;2023-07-13T12:21:42;3.70;;;2.45;;
58384;SDS011;44185;47.844;8.966;2023-07-13T12:24:14;3.95;;;2.35;;
58384;SDS011;44185;47.844;8.966;2023-07-13T12:26:41;3.30;;;2.22;;
58384;SDS011;44185;47.844;8.966;2023-07-13T12:29:07;4.30;;;2.50;;
58384;SDS011;44185;47.844;8.966;2023-07-13T12:31:34;2.63;;;2.28;;
58384;SDS011;44185;47.844;8.966;2023-07-13T12:34:01;4.20;;;3.20;;
58384;SDS011;44185;47.844;8.966;2023-07-13T12:36:31;4.78;;;2.35;;
58384;SDS011;44185;47.844;8.966;2023-07-13T12:38:59;4.97;;;2.47;;
58384;SDS011;44185;47.844;8.966;2023-07-13T12:41:29;4.85;;;2.40;;
58384;SDS011;44185;47.844;8.966;2023-07-13T12:43:55;4.68;;;2.50;;
58384;SDS011;44185;47.844;8.966;2023-07-13T12:46:23;3.13;;;2.08;;
58384;SDS011;44185;47.844;8.966;2023-07-13T12:48:50;3.08;;;2.30;;
58384;SDS011;44185;47.844;8.966;2023-07-13T12:51:20;4.00;;;2.38;;
58384;SDS011;44185;47.844;8.966;2023-07-13T12:53:47;3.08;;;2.28;;
58384;SDS011;44185;47.844;8.966;2023-07-13T12:56:16;5.13;;;2.75;;
58384;SDS011;44185;47.844;8.966;2023-07-13T12:58:46;4.35;;;2.60;;
58384;SDS011;44185;47.844;8.966;2023-07-13T13:01:13;4.47;;;2.50;;
58384;SDS011;44185;47.844;8.966;2023-07-13T13:03:40;2.30;;;2.10;;
58384;SDS011;44185;47.844;8.966;2023-07-13T13:06:20;3.13;;;2.40;;
58384;SDS011;44185;47.844;8.966;2023-07-13T13:08:49;3.20;;;2.35;;
58384;SDS011;44185;47.844;8.966;2023-07-13T13:11:15;4.03;;;2.70;;
58384;SDS011;44185;47.844;8.966;2023-07-13T13:13:41;3.65;;;2.50;;
58384;SDS011;44185;47.844;8.966;2023-07-13T13:16:10;2.47;;;2.17;;
58384;SDS011;44185;47.844;8.966;2023-07-13T13:18:39;3.67;;;2.50;;
58384;SDS011;44185;47.844;8.966;2023-07-13T13:21:04;2.50;;;2.20;;
58384;SDS011;44185;47.844;8.966;2023-07-13T13:23:29;3.05;;;2.70;;
58384;SDS011;44185;47.844;8.966;2023-07-13T13:25:55;5.05;;;2.58;;
58384;SDS011;44185;47.844;8.966;2023-07-13T13:28:20;4.20;;;2.60;;
58384;SDS011;44185;47.844;8.966;2023-07-13T13:30:46;4.25;;;2.50;;
58384;SDS011;44185;47.844;8.966;2023-07-13T13:33:15;6.53;;;2.80;;
58384;SDS011;44185;47.844;8.966;2023-07-13T13:35:43;4.88;;;2.70;;
58384;SDS011;44185;47.844;8.966;2023-07-13T13:38:10;3.90;;;2.72;;
58384;SDS011;44185;47.844;8.966;2023-07-13T13:40:36;2.70;;;2.50;;
58384;SDS011;44185;47.844;8.966;2023-07-13T13:43:04;5.40;;;2.50;;
58384;SDS011;44185;47.844;8.966;2023-07-13T13:45:38;5.88;;;2.58;;
58384;SDS011;44185;47.844;8.966;2023-07-13T13:48:04;3.72;;;2.50;;
58384;SDS011;44185;47.844;8.966;2023-07-13T13:50:31;3.90;;;2.30;;
58384;SDS011;44185;47.844;8.966;2023-07-13T13:52:57;4.13;;;2.50;;
58384;SDS011;44185;47.844;8.966;2023-07-13T13:55:22;3.30;;;2.53;;
58384;SDS011;44185;47.844;8.966;2023-07-13T13:57:48;3.97;;;2.42;;
58384;SDS011;44185;47.844;8.966;2023-07-13T14:00:14;4.60;;;2.63;;
58384;SDS011;44185;47.844;8.966;2023-07-13T14:02:40;5.22;;;2.70;;
58384;SDS011;44185;47.844;8.966;2023-07-13T14:05:09;3.00;;;2.70;;
58384;SDS011;44185;47.844;8.966;2023-07-13T14:07:39;6.25;;;2.92;;
58384;SDS011;44185;47.844;8.966;2023-07-13T14:10:05;5.32;;;2.70;;
58384;SDS011;44185;47.844;8.966;2023-07-13T14:12:36;4.55;;;2.70;;
58384;SDS011;44185;47.844;8.966;2023-07-13T14:15:01;2.40;;;2.20;;
58384;SDS011;44185;47.844;8.966;2023-07-13T14:17:27;3.70;;;2.40;;
58384;SDS011;44185;47.844;8.966;2023-07-13T14:19:53;4.88;;;2.75;;
58384;SDS011;44185;47.844;8.966;2023-07-13T14:22:19;5.90;;;2.88;;
58384;SDS011;44185;47.844;8.966;2023-07-13T14:24:46;4.95;;;2.83;;
58384;SDS011;44185;47.844;8.966;2023-07-13T14:27:12;5.00;;;2.63;;
58384;SDS011;44185;47.844;8.966;2023-07-13T14:29:38;3.90;;;2.70;;
58384;SDS011;44185;47.844;8.966;2023-07-13T14:32:04;3.40;;;2.53;;
58384;SDS011;44185;47.844;8.966;2023-07-13T14:34:30;4.75;;;2.88;;
58384;SDS011;44185;47.844;8.966;2023-07-13T14:36:55;3.25;;;2.70;;
58384;SDS011;44185;47.844;8.966;2023-07-13T14:39:22;4.23;;;2.80;;
58384;SDS011;44185;47.844;8.966;2023-07-13T14:41:51;5.22;;;2.70;;
58384;SDS011;44185;47.844;8.966;2023-07-13T14:44:18;4.97;;;2.80;;
58384;SDS011;44185;47.844;8.966;2023-07-13T14:46:45;5.28;;;2.63;;
58384;SDS011;44185;47.844;8.966;2023-07-13T14:49:13;4.20;;;2.78;;
58384;SDS011;44185;47.844;8.966;2023-07-13T14:51:51;5.53;;;2.90;;
58384;SDS011;44185;47.844;8.966;2023-07-13T14:54:16;4.82;;;2.67;;
58384;SDS011;44185;47.844;8.966;2023-07-13T14:56:42;4.60;;;2.53;;
58384;SDS011;44185;47.844;8.966;2023-07-13T14:59:09;4.50;;;2.28;;
58384;SDS011;44185;47.844;8.966;2023-07-13T15:01:34;4.43;;;2.63;;
58384;SDS011;44185;47.844;8.966;2023-07-13T15:04:02;3.95;;;2.92;;